sensor_id;sensor_type;location;lat;lon;timestamp;P1;durP1;ratioP1;P2;durP2;ratioP2
44750;SDS011;30477;48.224;11.470;2024-02-04T11:38:17;4.43;;;2.20;;
44750;SDS011;30477;48.224;11.470;2024-02-04T11:40:43;3.70;;;1.90;;
44750;SDS011;30477;48.224;11.470;2024-02-04T11:43:10;6.30;;;2.05;;
44750;SDS011;30477;48.224;11.470;2024-02-04T11:45:37;2.72;;;1.95;;
44750;SDS011;30477;48.224;11.470;2024-02-04T11:48:06;6.90;;;2.40;;
44750;SDS011;30477;48.224;11.470;2024-02-04T11:50:32;3.15;;;1.75;;
44750;SDS011;30477;48.224;11.470;2024-02-04T11:53:16;4.97;;;2.08;;
44750;SDS011;30477;48.224;11.470;2024-02-04T11:55:41;3.22;;;1.90;;
44750;SDS011;30477;48.224;11.470;2024-02-04T11:58:07;4.03;;;1.80;;
44750;SDS011;30477;48.224;11.470;2024-02-04T12:00:34;10.15;;;2.08;;
44750;SDS011;30477;48.224;11.470;2024-02-04T12:03:00;4.20;;;1.90;;
44750;SDS011;30477;48.224;11.470;2024-02-04T12:05:35;4.57;;;1.83;;
44750;SDS011;30477;48.224;11.470;2024-02-04T12:08:02;6.20;;;2.42;;
44750;SDS011;30477;48.224;11.470;2024-02-04T12:10:32;4.97;;;2.15;;
44750;SDS011;30477;48.224;11.470;2024-02-04T12:12:59;6.90;;;2.08;;
44750;SDS011;30477;48.224;11.470;2024-02-04T12:15:29;4.20;;;1.90;;
44750;SDS011;30477;48.224;11.470;2024-02-04T12:17:55;7.60;;;2.20;;
44750;SDS011;30477;48.224;11.470;2024-02-04T12:20:29;3.92;;;2.10;;
44750;SDS011;30477;48.224;11.470;2024-02-04T12:22:55;3.37;;;1.97;;
44750;SDS011;30477;48.224;11.470;2024-02-04T12:25:20;3.97;;;2.13;;
44750;SDS011;30477;48.224;11.470;2024-02-04T12:27:46;3.33;;;2.00;;
44750;SDS011;30477;48.224;11.470;2024-02-04T12:30:13;3.92;;;2.53;;
44750;SDS011;30477;48.224;11.470;2024-02-04T12:32:39;5.53;;;2.40;;
44750;SDS011;30477;48.224;11.470;2024-02-04T12:35:05;4.77;;;2.40;;
44750;SDS011;30477;48.224;11.470;2024-02-04T12:37:31;5.82;;;2.92;;
44750;SDS011;30477;48.224;11.470;2024-02-04T12:39:59;6.28;;;2.63;;
44750;SDS011;30477;48.224;11.470;2024-02-04T12:42:24;4.73;;;2.53;;
44750;SDS011;30477;48.224;11.470;2024-02-04T12:44:50;6.05;;;2.58;;
44750;SDS011;30477;48.224;11.470;2024-02-04T12:47:20;6.32;;;2.33;;
44750;SDS011;30477;48.224;11.470;2024-02-04T12:49:45;5.70;;;2.20;;
44750;SDS011;30477;48.224;11.470;2024-02-04T12:52:11;4.78;;;2.20;;
44750;SDS011;30477;48.224;11.470;2024-02-04T12:54:40;5.90;;;2.33;;
44750;SDS011;30477;48.224;11.470;2024-02-04T12:57:06;3.53;;;2.13;;
44750;SDS011;30477;48.224;11.470;2024-02-04T12:59:32;5.67;;;2.50;;
44750;SDS011;30477;48.224;11.470;2024-02-04T13:02:02;4.28;;;2.60;;
44750;SDS011;30477;48.224;11.470;2024-02-04T13:07:08;12.25;;;3.90;;
44750;SDS011;30477;48.224;11.470;2024-02-04T13:09:35;10.15;;;3.15;;
44750;SDS011;30477;48.224;11.470;2024-02-04T13:14:33;4.63;;;2.53;;
44750;SDS011;30477;48.224;11.470;2024-02-04T13:16:59;6.07;;;2.80;;
44750;SDS011;30477;48.224;11.470;2024-02-04T13:19:24;5.30;;;2.60;;
44750;SDS011;30477;48.224;11.470;2024-02-04T13:21:50;3.87;;;2.80;;
44750;SDS011;30477;48.224;11.470;2024-02-04T13:24:15;6.50;;;2.63;;
44750;SDS011;30477;48.224;11.470;2024-02-04T13:26:40;3.20;;;2.30;;
44750;SDS011;30477;48.224;11.470;2024-02-04T13:29:06;7.60;;;3.33;;
44750;SDS011;30477;48.224;11.470;2024-02-04T13:31:31;5.73;;;2.30;;
44750;SDS011;30477;48.224;11.470;2024-02-04T13:33:57;4.60;;;2.30;;
44750;SDS011;30477;48.224;11.470;2024-02-04T13:36:23;6.30;;;2.63;;
44750;SDS011;30477;48.224;11.470;2024-02-04T13:38:48;5.82;;;2.95;;
44750;SDS011;30477;48.224;11.470;2024-02-04T13:41:14;5.30;;;3.07;;
44750;SDS011;30477;48.224;11.470;2024-02-04T13:43:39;8.13;;;2.80;;
44750;SDS011;30477;48.224;11.470;2024-02-04T13:46:05;5.23;;;2.97;;
44750;SDS011;30477;48.224;11.470;2024-02-04T13:48:30;4.10;;;2.67;;
44750;SDS011;30477;48.224;11.470;2024-02-04T13:50:55;5.57;;;2.60;;
44750;SDS011;30477;48.224;11.470;2024-02-04T13:53:21;5.23;;;2.43;;
44750;SDS011;30477;48.224;11.470;2024-02-04T13:55:46;3.80;;;2.73;;
44750;SDS011;30477;48.224;11.470;2024-02-04T13:58:14;5.60;;;2.72;;
44750;SDS011;30477;48.224;11.470;2024-02-04T14:00:39;4.00;;;2.58;;
44750;SDS011;30477;48.224;11.470;2024-02-04T14:03:05;6.97;;;2.47;;
44750;SDS011;30477;48.224;11.470;2024-02-04T14:05:31;4.80;;;2.70;;
44750;SDS011;30477;48.224;11.470;2024-02-04T14:07:57;3.33;;;2.50;;
44750;SDS011;30477;48.224;11.470;2024-02-04T14:10:22;4.03;;;2.33;;
44750;SDS011;30477;48.224;11.470;2024-02-04T14:12:47;3.67;;;2.07;;
44750;SDS011;30477;48.224;11.470;2024-02-04T14:15:13;4.87;;;2.27;;
44750;SDS011;30477;48.224;11.470;2024-02-04T14:17:38;2.67;;;1.90;;
44750;SDS011;30477;48.224;11.470;2024-02-04T14:20:05;2.90;;;1.70;;
44750;SDS011;30477;48.224;11.470;2024-02-04T14:22:31;5.95;;;2.20;;
44750;SDS011;30477;48.224;11.470;2024-02-04T14:24:57;4.73;;;1.70;;
44750;SDS011;30477;48.224;11.470;2024-02-04T14:27:22;4.90;;;1.90;;
44750;SDS011;30477;48.224;11.470;2024-02-04T14:29:48;4.13;;;1.67;;
44750;SDS011;30477;48.224;11.470;2024-02-04T14:32:13;5.00;;;1.80;;
44750;SDS011;30477;48.224;11.470;2024-02-04T14:34:39;4.60;;;1.73;;
44750;SDS011;30477;48.224;11.470;2024-02-04T14:37:04;3.37;;;1.60;;
44750;SDS011;30477;48.224;11.470;2024-02-04T14:39:30;2.30;;;1.60;;
44750;SDS011;30477;48.224;11.470;2024-02-04T14:41:58;6.40;;;2.65;;
44750;SDS011;30477;48.224;11.470;2024-02-04T14:44:23;5.37;;;2.03;;
44750;SDS011;30477;48.224;11.470;2024-02-04T14:46:49;3.23;;;2.10;;
44750;SDS011;30477;48.224;11.470;2024-02-04T14:49:15;3.55;;;2.10;;
44750;SDS011;30477;48.224;11.470;2024-02-04T14:51:40;6.50;;;2.17;;
44750;SDS011;30477;48.224;11.470;2024-02-04T14:54:06;5.27;;;2.13;;
44750;SDS011;30477;48.224;11.470;2024-02-04T14:56:38;5.07;;;2.13;;
44750;SDS011;30477;48.224;11.470;2024-02-04T14:59:04;2.92;;;1.90;;
44750;SDS011;30477;48.224;11.470;2024-02-04T15:01:31;7.68;;;1.80;;
44750;SDS011;30477;48.224;11.470;2024-02-04T15:03:57;4.43;;;1.83;;
44750;SDS011;30477;48.224;11.470;2024-02-04T15:06:22;3.60;;;1.60;;
44750;SDS011;30477;48.224;11.470;2024-02-04T15:08:47;6.23;;;1.80;;
44750;SDS011;30477;48.224;11.470;2024-02-04T15:11:12;5.23;;;1.87;;
44750;SDS011;30477;48.224;11.470;2024-02-04T15:13:38;4.77;;;1.90;;
44750;SDS011;30477;48.224;11.470;2024-02-04T15:16:04;6.18;;;2.03;;
44750;SDS011;30477;48.224;11.470;2024-02-04T15:18:30;2.35;;;1.80;;
44750;SDS011;30477;48.224;11.470;2024-02-04T15:20:56;5.43;;;2.05;;
44750;SDS011;30477;48.224;11.470;2024-02-04T15:23:22;4.53;;;1.60;;
44750;SDS011;30477;48.224;11.470;2024-02-04T15:25:47;4.93;;;2.13;;
44750;SDS011;30477;48.224;11.470;2024-02-04T15:28:13;5.27;;;1.90;;
44750;SDS011;30477;48.224;11.470;2024-02-04T15:33:05;3.20;;;2.30;;
44750;SDS011;30477;48.224;11.470;2024-02-04T15:35:31;5.30;;;2.28;;
44750;SDS011;30477;48.224;11.470;2024-02-04T15:37:57;4.63;;;2.35;;
44750;SDS011;30477;48.224;11.470;2024-02-04T15:40:23;4.88;;;1.92;;
44750;SDS011;30477;48.224;11.470;2024-02-04T15:42:49;5.20;;;2.08;;
44750;SDS011;30477;48.224;11.470;2024-02-04T15:45:14;5.37;;;2.10;;
44750;SDS011;30477;48.224;11.470;2024-02-04T15:47:43;7.68;;;1.92;;
44750;SDS011;30477;48.224;11.470;2024-02-04T15:50:14;5.95;;;2.08;;
44750;SDS011;30477;48.224;11.470;2024-02-04T15:52:40;4.35;;;1.80;;
44750;SDS011;30477;48.224;11.470;2024-02-04T15:55:05;7.63;;;2.50;;
44750;SDS011;30477;48.224;11.470;2024-02-04T15:57:33;7.50;;;2.50;;
44750;SDS011;30477;48.224;11.470;2024-02-04T16:00:03;3.42;;;2.10;;
44750;SDS011;30477;48.224;11.470;2024-02-04T16:02:36;3.47;;;1.85;;
44750;SDS011;30477;48.224;11.470;2024-02-04T16:05:03;7.28;;;2.30;;
44750;SDS011;30477;48.224;11.470;2024-02-04T16:07:28;5.63;;;2.05;;
44750;SDS011;30477;48.224;11.470;2024-02-04T16:09:54;4.27;;;2.00;;
44750;SDS011;30477;48.224;11.470;2024-02-04T16:12:20;2.67;;;2.15;;
44750;SDS011;30477;48.224;11.470;2024-02-04T16:14:48;6.00;;;2.03;;
44750;SDS011;30477;48.224;11.470;2024-02-04T16:17:19;7.25;;;2.20;;
44750;SDS011;30477;48.224;11.470;2024-02-04T16:19:45;5.10;;;2.10;;
44750;SDS011;30477;48.224;11.470;2024-02-04T16:22:16;6.38;;;2.30;;
44750;SDS011;30477;48.224;11.470;2024-02-04T16:24:42;5.38;;;2.25;;
44750;SDS011;30477;48.224;11.470;2024-02-04T16:27:08;3.35;;;2.58;;
44750;SDS011;30477;48.224;11.470;2024-02-04T16:29:34;5.03;;;2.13;;
44750;SDS011;30477;48.224;11.470;2024-02-04T16:34:25;5.33;;;2.47;;
44750;SDS011;30477;48.224;11.470;2024-02-04T16:36:51;6.60;;;2.47;;
44750;SDS011;30477;48.224;11.470;2024-02-04T16:39:16;5.57;;;2.13;;
44750;SDS011;30477;48.224;11.470;2024-02-04T16:41:43;4.47;;;1.97;;
44750;SDS011;30477;48.224;11.470;2024-02-04T16:44:09;4.28;;;2.50;;
44750;SDS011;30477;48.224;11.470;2024-02-04T16:46:38;4.78;;;2.30;;
44750;SDS011;30477;48.224;11.470;2024-02-04T16:49:03;3.30;;;2.13;;
44750;SDS011;30477;48.224;11.470;2024-02-04T16:51:30;6.60;;;2.90;;
44750;SDS011;30477;48.224;11.470;2024-02-04T16:54:01;5.90;;;2.25;;
44750;SDS011;30477;48.224;11.470;2024-02-04T16:56:27;6.07;;;2.63;;
44750;SDS011;30477;48.224;11.470;2024-02-04T16:58:52;5.87;;;2.10;;
44750;SDS011;30477;48.224;11.470;2024-02-04T17:01:18;5.43;;;2.47;;
44750;SDS011;30477;48.224;11.470;2024-02-04T17:03:45;4.33;;;2.43;;
44750;SDS011;30477;48.224;11.470;2024-02-04T17:06:10;7.22;;;2.92;;
44750;SDS011;30477;48.224;11.470;2024-02-04T17:08:36;4.68;;;2.30;;
44750;SDS011;30477;48.224;11.470;2024-02-04T17:11:02;4.97;;;2.60;;
44750;SDS011;30477;48.224;11.470;2024-02-04T17:13:27;6.83;;;2.83;;
44750;SDS011;30477;48.224;11.470;2024-02-04T17:15:53;4.67;;;2.47;;
44750;SDS011;30477;48.224;11.470;2024-02-04T17:18:23;5.35;;;3.40;;
44750;SDS011;30477;48.224;11.470;2024-02-04T17:21:04;5.38;;;3.08;;
44750;SDS011;30477;48.224;11.470;2024-02-04T17:23:34;5.97;;;2.70;;
44750;SDS011;30477;48.224;11.470;2024-02-04T17:26:03;4.22;;;2.30;;
44750;SDS011;30477;48.224;11.470;2024-02-04T17:28:31;5.43;;;2.85;;
44750;SDS011;30477;48.224;11.470;2024-02-04T17:30:57;7.17;;;3.30;;
44750;SDS011;30477;48.224;11.470;2024-02-04T17:33:24;5.20;;;2.60;;
44750;SDS011;30477;48.224;11.470;2024-02-04T17:35:50;6.78;;;2.55;;
44750;SDS011;30477;48.224;11.470;2024-02-04T17:38:16;6.78;;;2.97;;
44750;SDS011;30477;48.224;11.470;2024-02-04T17:40:43;4.22;;;2.78;;
44750;SDS011;30477;48.224;11.470;2024-02-04T17:43:09;5.67;;;2.40;;
44750;SDS011;30477;48.224;11.470;2024-02-04T17:45:37;3.45;;;2.38;;
44750;SDS011;30477;48.224;11.470;2024-02-04T17:48:03;5.20;;;2.78;;
44750;SDS011;30477;48.224;11.470;2024-02-04T17:50:29;4.60;;;2.97;;
44750;SDS011;30477;48.224;11.470;2024-02-04T17:52:55;6.27;;;2.60;;
44750;SDS011;30477;48.224;11.470;2024-02-04T17:55:20;9.33;;;2.87;;
44750;SDS011;30477;48.224;11.470;2024-02-04T17:57:47;4.45;;;2.40;;
44750;SDS011;30477;48.224;11.470;2024-02-04T18:00:13;6.88;;;2.40;;
44750;SDS011;30477;48.224;11.470;2024-02-04T18:02:38;5.05;;;2.60;;
44750;SDS011;30477;48.224;11.470;2024-02-04T18:05:04;4.05;;;2.10;;
44750;SDS011;30477;48.224;11.470;2024-02-04T18:07:30;2.90;;;2.10;;
44750;SDS011;30477;48.224;11.470;2024-02-04T18:09:55;6.30;;;2.30;;
44750;SDS011;30477;48.224;11.470;2024-02-04T18:12:21;6.73;;;2.40;;
44750;SDS011;30477;48.224;11.470;2024-02-04T18:14:46;7.00;;;2.40;;
44750;SDS011;30477;48.224;11.470;2024-02-04T18:17:11;5.77;;;1.93;;
44750;SDS011;30477;48.224;11.470;2024-02-04T18:19:37;5.53;;;2.00;;
44750;SDS011;30477;48.224;11.470;2024-02-04T18:22:02;4.70;;;2.70;;
44750;SDS011;30477;48.224;11.470;2024-02-04T18:24:27;5.20;;;2.10;;
44750;SDS011;30477;48.224;11.470;2024-02-04T18:26:53;3.97;;;2.03;;
44750;SDS011;30477;48.224;11.470;2024-02-04T18:29:18;4.53;;;2.23;;
44750;SDS011;30477;48.224;11.470;2024-02-04T18:31:44;6.28;;;2.42;;
44750;SDS011;30477;48.224;11.470;2024-02-04T18:34:13;5.47;;;2.78;;
44750;SDS011;30477;48.224;11.470;2024-02-04T18:36:38;3.97;;;2.50;;
44750;SDS011;30477;48.224;11.470;2024-02-04T18:39:04;8.97;;;2.67;;
44750;SDS011;30477;48.224;11.470;2024-02-04T18:41:31;6.55;;;2.90;;
44750;SDS011;30477;48.224;11.470;2024-02-04T18:43:56;6.20;;;3.33;;
44750;SDS011;30477;48.224;11.470;2024-02-04T18:46:22;6.67;;;2.80;;
44750;SDS011;30477;48.224;11.470;2024-02-04T18:48:47;6.53;;;2.60;;
44750;SDS011;30477;48.224;11.470;2024-02-04T18:51:13;6.13;;;2.60;;
44750;SDS011;30477;48.224;11.470;2024-02-04T18:53:38;6.73;;;2.80;;
44750;SDS011;30477;48.224;11.470;2024-02-04T18:56:04;6.87;;;2.47;;
44750;SDS011;30477;48.224;11.470;2024-02-04T18:58:40;5.30;;;2.40;;
44750;SDS011;30477;48.224;11.470;2024-02-04T19:01:06;5.00;;;2.42;;
44750;SDS011;30477;48.224;11.470;2024-02-04T19:03:31;6.07;;;2.47;;
44750;SDS011;30477;48.224;11.470;2024-02-04T19:05:57;7.40;;;2.37;;
44750;SDS011;30477;48.224;11.470;2024-02-04T19:08:22;6.47;;;2.73;;
44750;SDS011;30477;48.224;11.470;2024-02-04T19:10:47;7.10;;;2.80;;
44750;SDS011;30477;48.224;11.470;2024-02-04T19:13:13;6.87;;;2.80;;
44750;SDS011;30477;48.224;11.470;2024-02-04T19:15:38;4.97;;;2.50;;
44750;SDS011;30477;48.224;11.470;2024-02-04T19:18:04;4.27;;;2.33;;
44750;SDS011;30477;48.224;11.470;2024-02-04T19:20:29;6.30;;;2.20;;
44750;SDS011;30477;48.224;11.470;2024-02-04T19:22:55;5.57;;;2.67;;
44750;SDS011;30477;48.224;11.470;2024-02-04T19:25:20;6.83;;;2.50;;
44750;SDS011;30477;48.224;11.470;2024-02-04T19:27:50;6.30;;;2.92;;
44750;SDS011;30477;48.224;11.470;2024-02-04T19:30:17;9.00;;;3.38;;
44750;SDS011;30477;48.224;11.470;2024-02-04T19:32:43;6.32;;;2.35;;
44750;SDS011;30477;48.224;11.470;2024-02-04T19:35:12;5.22;;;2.80;;
44750;SDS011;30477;48.224;11.470;2024-02-04T19:37:42;5.10;;;2.65;;
44750;SDS011;30477;48.224;11.470;2024-02-04T19:40:08;5.60;;;3.22;;
44750;SDS011;30477;48.224;11.470;2024-02-04T19:42:35;7.40;;;2.90;;
44750;SDS011;30477;48.224;11.470;2024-02-04T19:45:00;5.90;;;3.15;;
44750;SDS011;30477;48.224;11.470;2024-02-04T19:47:26;7.37;;;3.37;;
44750;SDS011;30477;48.224;11.470;2024-02-04T19:49:52;4.80;;;2.67;;
44750;SDS011;30477;48.224;11.470;2024-02-04T19:52:18;6.95;;;2.88;;
44750;SDS011;30477;48.224;11.470;2024-02-04T19:54:43;4.67;;;2.70;;
44750;SDS011;30477;48.224;11.470;2024-02-04T19:57:09;6.20;;;3.00;;
44750;SDS011;30477;48.224;11.470;2024-02-04T19:59:35;6.10;;;2.80;;
44750;SDS011;30477;48.224;11.470;2024-02-04T20:02:00;7.77;;;2.70;;
44750;SDS011;30477;48.224;11.470;2024-02-04T20:04:27;5.20;;;2.50;;
44750;SDS011;30477;48.224;11.470;2024-02-04T20:06:52;5.00;;;2.53;;
44750;SDS011;30477;48.224;11.470;2024-02-04T20:09:18;5.80;;;2.60;;
44750;SDS011;30477;48.224;11.470;2024-02-04T20:11:43;6.50;;;2.67;;
44750;SDS011;30477;48.224;11.470;2024-02-04T20:14:08;7.87;;;2.70;;
44750;SDS011;30477;48.224;11.470;2024-02-04T20:16:34;4.30;;;2.50;;
44750;SDS011;30477;48.224;11.470;2024-02-04T20:18:59;4.10;;;2.47;;
44750;SDS011;30477;48.224;11.470;2024-02-04T20:21:25;5.03;;;2.47;;
44750;SDS011;30477;48.224;11.470;2024-02-04T20:23:50;3.73;;;2.30;;
44750;SDS011;30477;48.224;11.470;2024-02-04T20:26:15;9.83;;;2.70;;
44750;SDS011;30477;48.224;11.470;2024-02-04T20:28:41;7.10;;;2.47;;
44750;SDS011;30477;48.224;11.470;2024-02-04T20:31:09;4.78;;;2.10;;
44750;SDS011;30477;48.224;11.470;2024-02-04T20:33:34;4.87;;;2.40;;
44750;SDS011;30477;48.224;11.470;2024-02-04T20:36:00;6.30;;;2.83;;
44750;SDS011;30477;48.224;11.470;2024-02-04T20:38:26;7.93;;;2.63;;
44750;SDS011;30477;48.224;11.470;2024-02-04T20:40:51;6.97;;;2.80;;
44750;SDS011;30477;48.224;11.470;2024-02-04T20:43:17;8.00;;;2.57;;
44750;SDS011;30477;48.224;11.470;2024-02-04T20:45:42;5.33;;;2.40;;
44750;SDS011;30477;48.224;11.470;2024-02-04T20:48:11;6.57;;;2.13;;
44750;SDS011;30477;48.224;11.470;2024-02-04T20:50:36;8.27;;;2.60;;
44750;SDS011;30477;48.224;11.470;2024-02-04T20:53:02;5.10;;;2.30;;
44750;SDS011;30477;48.224;11.470;2024-02-04T20:55:28;4.82;;;2.30;;
44750;SDS011;30477;48.224;11.470;2024-02-04T20:57:54;4.03;;;1.87;;
44750;SDS011;30477;48.224;11.470;2024-02-04T21:00:20;3.08;;;1.83;;
44750;SDS011;30477;48.224;11.470;2024-02-04T21:02:45;5.30;;;2.03;;
44750;SDS011;30477;48.224;11.470;2024-02-04T21:05:11;7.50;;;2.00;;
44750;SDS011;30477;48.224;11.470;2024-02-04T21:07:36;5.13;;;1.77;;
44750;SDS011;30477;48.224;11.470;2024-02-04T21:10:01;3.17;;;1.90;;
44750;SDS011;30477;48.224;11.470;2024-02-04T21:12:30;2.53;;;1.90;;
44750;SDS011;30477;48.224;11.470;2024-02-04T21:14:55;3.27;;;1.90;;
44750;SDS011;30477;48.224;11.470;2024-02-04T21:17:21;3.90;;;2.00;;
44750;SDS011;30477;48.224;11.470;2024-02-04T21:19:46;3.90;;;1.80;;
44750;SDS011;30477;48.224;11.470;2024-02-04T21:22:12;4.57;;;1.65;;
44750;SDS011;30477;48.224;11.470;2024-02-04T21:24:38;3.67;;;1.90;;
44750;SDS011;30477;48.224;11.470;2024-02-04T21:27:03;3.50;;;1.43;;
44750;SDS011;30477;48.224;11.470;2024-02-04T21:29:28;3.70;;;1.53;;
44750;SDS011;30477;48.224;11.470;2024-02-04T21:31:54;4.70;;;1.47;;
44750;SDS011;30477;48.224;11.470;2024-02-04T21:34:20;2.50;;;1.30;;
44750;SDS011;30477;48.224;11.470;2024-02-04T21:36:46;5.85;;;1.80;;
44750;SDS011;30477;48.224;11.470;2024-02-04T21:39:12;3.72;;;1.52;;
44750;SDS011;30477;48.224;11.470;2024-02-04T21:41:41;3.88;;;1.60;;
44750;SDS011;30477;48.224;11.470;2024-02-04T21:44:07;2.65;;;1.42;;
44750;SDS011;30477;48.224;11.470;2024-02-04T21:46:32;3.33;;;1.57;;
44750;SDS011;30477;48.224;11.470;2024-02-04T21:48:58;3.67;;;1.77;;
44750;SDS011;30477;48.224;11.470;2024-02-04T21:51:25;4.65;;;2.00;;
44750;SDS011;30477;48.224;11.470;2024-02-04T21:56:16;5.97;;;1.52;;
44750;SDS011;30477;48.224;11.470;2024-02-04T21:58:42;2.50;;;1.30;;
44750;SDS011;30477;48.224;11.470;2024-02-04T22:03:34;4.00;;;1.47;;
44750;SDS011;30477;48.224;11.470;2024-02-04T22:05:59;3.50;;;1.37;;
44750;SDS011;30477;48.224;11.470;2024-02-04T22:08:26;4.53;;;1.40;;
44750;SDS011;30477;48.224;11.470;2024-02-04T22:10:51;5.07;;;2.03;;
44750;SDS011;30477;48.224;11.470;2024-02-04T22:13:16;4.67;;;1.77;;
44750;SDS011;30477;48.224;11.470;2024-02-04T22:15:42;5.83;;;1.50;;
44750;SDS011;30477;48.224;11.470;2024-02-04T22:18:07;3.47;;;1.77;;
44750;SDS011;30477;48.224;11.470;2024-02-04T22:20:33;3.10;;;1.50;;
44750;SDS011;30477;48.224;11.470;2024-02-04T22:22:58;3.77;;;1.43;;
44750;SDS011;30477;48.224;11.470;2024-02-04T22:25:23;5.33;;;1.60;;
44750;SDS011;30477;48.224;11.470;2024-02-04T22:27:54;3.75;;;1.42;;
44750;SDS011;30477;48.224;11.470;2024-02-04T22:30:23;5.75;;;1.80;;
44750;SDS011;30477;48.224;11.470;2024-02-04T22:32:49;2.55;;;1.42;;
44750;SDS011;30477;48.224;11.470;2024-02-04T22:35:14;3.93;;;1.50;;
44750;SDS011;30477;48.224;11.470;2024-02-04T22:37:40;7.63;;;1.90;;
44750;SDS011;30477;48.224;11.470;2024-02-04T22:40:05;3.03;;;1.50;;
44750;SDS011;30477;48.224;11.470;2024-02-04T22:42:40;3.88;;;1.42;;
44750;SDS011;30477;48.224;11.470;2024-02-04T22:45:06;3.03;;;1.60;;
44750;SDS011;30477;48.224;11.470;2024-02-04T22:49:58;4.90;;;1.80;;
44750;SDS011;30477;48.224;11.470;2024-02-04T22:52:23;4.77;;;1.73;;
44750;SDS011;30477;48.224;11.470;2024-02-04T22:54:48;3.57;;;1.50;;
44750;SDS011;30477;48.224;11.470;2024-02-04T22:57:14;2.33;;;1.60;;
44750;SDS011;30477;48.224;11.470;2024-02-04T22:59:39;6.53;;;1.60;;
44750;SDS011;30477;48.224;11.470;2024-02-04T23:02:05;4.95;;;1.60;;
44750;SDS011;30477;48.224;11.470;2024-02-04T23:04:31;2.88;;;1.65;;
44750;SDS011;30477;48.224;11.470;2024-02-04T23:07:01;3.95;;;1.80;;
44750;SDS011;30477;48.224;11.470;2024-02-04T23:09:28;2.55;;;1.95;;
44750;SDS011;30477;48.224;11.470;2024-02-04T23:11:53;2.00;;;1.50;;
44750;SDS011;30477;48.224;11.470;2024-02-04T23:14:18;4.13;;;1.47;;
44750;SDS011;30477;48.224;11.470;2024-02-04T23:16:44;4.43;;;1.40;;
44750;SDS011;30477;48.224;11.470;2024-02-04T23:19:09;2.93;;;1.40;;
44750;SDS011;30477;48.224;11.470;2024-02-04T23:21:35;4.43;;;1.80;;
44750;SDS011;30477;48.224;11.470;2024-02-04T23:24:00;5.07;;;2.10;;
44750;SDS011;30477;48.224;11.470;2024-02-04T23:26:25;3.40;;;1.20;;
44750;SDS011;30477;48.224;11.470;2024-02-04T23:28:51;2.93;;;1.60;;
44750;SDS011;30477;48.224;11.470;2024-02-04T23:31:16;2.70;;;1.50;;
44750;SDS011;30477;48.224;11.470;2024-02-04T23:33:42;2.33;;;1.33;;
44750;SDS011;30477;48.224;11.470;2024-02-04T23:36:08;3.37;;;1.40;;
44750;SDS011;30477;48.224;11.470;2024-02-04T23:38:33;2.07;;;1.30;;
44750;SDS011;30477;48.224;11.470;2024-02-04T23:40:59;3.50;;;1.50;;
44750;SDS011;30477;48.224;11.470;2024-02-04T23:43:24;3.33;;;1.40;;
44750;SDS011;30477;48.224;11.470;2024-02-04T23:45:49;2.40;;;1.20;;
44750;SDS011;30477;48.224;11.470;2024-02-04T23:48:15;2.57;;;1.50;;
44750;SDS011;30477;48.224;11.470;2024-02-04T23:50:40;3.60;;;1.80;;
44750;SDS011;30477;48.224;11.470;2024-02-04T23:53:06;3.28;;;1.60;;
44750;SDS011;30477;48.224;11.470;2024-02-04T23:55:33;6.78;;;1.70;;
44750;SDS011;30477;48.224;11.470;2024-02-04T23:57:58;1.63;;;1.37;;
